sensor_id;sensor_type;location;lat;lon;timestamp;P1;durP1;ratioP1;P2;durP2;ratioP2
59434;SDS011;45241;49.768;8.636;2023-03-14T00:00:07;1.45;;;0.65;;
59434;SDS011;45241;49.768;8.636;2023-03-14T00:02:35;0.95;;;0.60;;
59434;SDS011;45241;49.768;8.636;2023-03-14T00:05:01;1.60;;;0.80;;
59434;SDS011;45241;49.768;8.636;2023-03-14T00:09:58;1.60;;;0.70;;
59434;SDS011;45241;49.768;8.636;2023-03-14T00:12:24;0.98;;;0.65;;
59434;SDS011;45241;49.768;8.636;2023-03-14T00:14:49;1.67;;;0.68;;
59434;SDS011;45241;49.768;8.636;2023-03-14T00:17:14;2.88;;;0.70;;
59434;SDS011;45241;49.768;8.636;2023-03-14T00:19:40;2.78;;;0.77;;
59434;SDS011;45241;49.768;8.636;2023-03-14T00:22:05;0.82;;;0.50;;
59434;SDS011;45241;49.768;8.636;2023-03-14T00:24:30;1.15;;;0.65;;
59434;SDS011;45241;49.768;8.636;2023-03-14T00:26:55;3.83;;;0.68;;
59434;SDS011;45241;49.768;8.636;2023-03-14T00:29:21;2.45;;;0.70;;
59434;SDS011;45241;49.768;8.636;2023-03-14T00:31:46;2.20;;;0.65;;
59434;SDS011;45241;49.768;8.636;2023-03-14T00:34:11;0.63;;;0.60;;
59434;SDS011;45241;49.768;8.636;2023-03-14T00:36:36;2.25;;;0.73;;
59434;SDS011;45241;49.768;8.636;2023-03-14T00:39:02;1.60;;;0.50;;
59434;SDS011;45241;49.768;8.636;2023-03-14T00:41:27;0.82;;;0.60;;
59434;SDS011;45241;49.768;8.636;2023-03-14T00:43:52;1.13;;;0.60;;
59434;SDS011;45241;49.768;8.636;2023-03-14T00:46:18;2.88;;;0.60;;
59434;SDS011;45241;49.768;8.636;2023-03-14T00:48:46;2.20;;;0.65;;
59434;SDS011;45241;49.768;8.636;2023-03-14T00:51:12;1.42;;;0.57;;
59434;SDS011;45241;49.768;8.636;2023-03-14T00:53:40;2.17;;;0.70;;
59434;SDS011;45241;49.768;8.636;2023-03-14T00:56:07;1.60;;;0.50;;
59434;SDS011;45241;49.768;8.636;2023-03-14T00:58:34;1.40;;;0.68;;
59434;SDS011;45241;49.768;8.636;2023-03-14T01:01:04;2.53;;;0.60;;
59434;SDS011;45241;49.768;8.636;2023-03-14T01:03:30;3.72;;;0.75;;
59434;SDS011;45241;49.768;8.636;2023-03-14T01:06:05;2.80;;;0.68;;
59434;SDS011;45241;49.768;8.636;2023-03-14T01:08:32;2.60;;;0.70;;
59434;SDS011;45241;49.768;8.636;2023-03-14T01:10:57;3.72;;;0.65;;
59434;SDS011;45241;49.768;8.636;2023-03-14T01:13:22;1.08;;;0.60;;
59434;SDS011;45241;49.768;8.636;2023-03-14T01:15:47;2.40;;;0.60;;
59434;SDS011;45241;49.768;8.636;2023-03-14T01:18:13;2.85;;;0.60;;
59434;SDS011;45241;49.768;8.636;2023-03-14T01:20:38;4.07;;;0.63;;
59434;SDS011;45241;49.768;8.636;2023-03-14T01:23:03;0.93;;;0.60;;
59434;SDS011;45241;49.768;8.636;2023-03-14T01:25:28;1.83;;;0.60;;
59434;SDS011;45241;49.768;8.636;2023-03-14T01:27:55;1.75;;;0.70;;
59434;SDS011;45241;49.768;8.636;2023-03-14T01:30:20;3.90;;;0.88;;
59434;SDS011;45241;49.768;8.636;2023-03-14T01:32:45;2.30;;;0.60;;
59434;SDS011;45241;49.768;8.636;2023-03-14T01:35:11;2.25;;;0.82;;
59434;SDS011;45241;49.768;8.636;2023-03-14T01:37:36;1.95;;;0.55;;
59434;SDS011;45241;49.768;8.636;2023-03-14T01:40:01;3.05;;;0.73;;
59434;SDS011;45241;49.768;8.636;2023-03-14T01:42:28;1.52;;;0.60;;
59434;SDS011;45241;49.768;8.636;2023-03-14T01:44:56;2.90;;;0.57;;
59434;SDS011;45241;49.768;8.636;2023-03-14T01:47:23;0.98;;;0.40;;
59434;SDS011;45241;49.768;8.636;2023-03-14T01:49:53;2.80;;;0.55;;
59434;SDS011;45241;49.768;8.636;2023-03-14T01:52:28;0.98;;;0.40;;
59434;SDS011;45241;49.768;8.636;2023-03-14T01:55:09;2.35;;;0.77;;
59434;SDS011;45241;49.768;8.636;2023-03-14T01:57:46;2.08;;;0.70;;
59434;SDS011;45241;49.768;8.636;2023-03-14T02:00:16;1.55;;;0.70;;
59434;SDS011;45241;49.768;8.636;2023-03-14T02:02:45;2.80;;;0.70;;
59434;SDS011;45241;49.768;8.636;2023-03-14T02:05:12;1.63;;;0.70;;
59434;SDS011;45241;49.768;8.636;2023-03-14T02:07:43;1.95;;;0.60;;
59434;SDS011;45241;49.768;8.636;2023-03-14T02:10:13;1.52;;;0.70;;
59434;SDS011;45241;49.768;8.636;2023-03-14T02:12:40;1.85;;;0.70;;
59434;SDS011;45241;49.768;8.636;2023-03-14T02:15:05;3.05;;;0.80;;
59434;SDS011;45241;49.768;8.636;2023-03-14T02:17:31;2.95;;;0.60;;
59434;SDS011;45241;49.768;8.636;2023-03-14T02:22:50;0.70;;;0.57;;
59434;SDS011;45241;49.768;8.636;2023-03-14T02:25:19;2.78;;;0.60;;
59434;SDS011;45241;49.768;8.636;2023-03-14T02:27:53;1.52;;;0.80;;
59434;SDS011;45241;49.768;8.636;2023-03-14T02:30:20;2.35;;;0.50;;
59434;SDS011;45241;49.768;8.636;2023-03-14T02:32:48;0.90;;;0.57;;
59434;SDS011;45241;49.768;8.636;2023-03-14T02:35:18;1.10;;;0.57;;
59434;SDS011;45241;49.768;8.636;2023-03-14T02:37:53;0.70;;;0.50;;
59434;SDS011;45241;49.768;8.636;2023-03-14T02:40:22;1.27;;;0.50;;
59434;SDS011;45241;49.768;8.636;2023-03-14T02:42:48;3.10;;;0.65;;
59434;SDS011;45241;49.768;8.636;2023-03-14T02:47:54;4.35;;;0.63;;
59434;SDS011;45241;49.768;8.636;2023-03-14T02:50:26;2.00;;;0.70;;
59434;SDS011;45241;49.768;8.636;2023-03-14T02:52:55;2.85;;;0.77;;
59434;SDS011;45241;49.768;8.636;2023-03-14T02:55:21;2.10;;;0.60;;
59434;SDS011;45241;49.768;8.636;2023-03-14T02:57:48;1.02;;;0.60;;
59434;SDS011;45241;49.768;8.636;2023-03-14T03:00:13;2.28;;;0.60;;
59434;SDS011;45241;49.768;8.636;2023-03-14T03:02:39;4.65;;;0.85;;
59434;SDS011;45241;49.768;8.636;2023-03-14T03:05:05;1.70;;;0.77;;
59434;SDS011;45241;49.768;8.636;2023-03-14T03:07:30;1.98;;;0.90;;
59434;SDS011;45241;49.768;8.636;2023-03-14T03:09:56;2.75;;;0.77;;
59434;SDS011;45241;49.768;8.636;2023-03-14T03:12:21;1.23;;;0.38;;
59434;SDS011;45241;49.768;8.636;2023-03-14T03:14:46;2.53;;;0.80;;
59434;SDS011;45241;49.768;8.636;2023-03-14T03:17:12;3.55;;;0.90;;
59434;SDS011;45241;49.768;8.636;2023-03-14T03:19:37;3.35;;;0.60;;
59434;SDS011;45241;49.768;8.636;2023-03-14T03:22:02;3.08;;;0.70;;
59434;SDS011;45241;49.768;8.636;2023-03-14T03:24:27;2.72;;;0.73;;
59434;SDS011;45241;49.768;8.636;2023-03-14T03:26:53;3.38;;;0.73;;
59434;SDS011;45241;49.768;8.636;2023-03-14T03:29:18;3.92;;;0.90;;
59434;SDS011;45241;49.768;8.636;2023-03-14T03:31:44;5.15;;;0.70;;
59434;SDS011;45241;49.768;8.636;2023-03-14T03:34:10;1.75;;;1.00;;
59434;SDS011;45241;49.768;8.636;2023-03-14T03:36:36;2.83;;;0.60;;
59434;SDS011;45241;49.768;8.636;2023-03-14T03:39:02;2.55;;;0.88;;
59434;SDS011;45241;49.768;8.636;2023-03-14T03:41:27;2.95;;;0.60;;
59434;SDS011;45241;49.768;8.636;2023-03-14T03:43:52;2.67;;;0.52;;
59434;SDS011;45241;49.768;8.636;2023-03-14T03:46:19;4.00;;;0.65;;
59434;SDS011;45241;49.768;8.636;2023-03-14T03:48:44;5.40;;;0.95;;
59434;SDS011;45241;49.768;8.636;2023-03-14T03:51:13;2.35;;;0.50;;
59434;SDS011;45241;49.768;8.636;2023-03-14T03:53:40;3.10;;;0.68;;
59434;SDS011;45241;49.768;8.636;2023-03-14T03:56:06;6.43;;;1.10;;
59434;SDS011;45241;49.768;8.636;2023-03-14T03:58:31;3.15;;;0.90;;
59434;SDS011;45241;49.768;8.636;2023-03-14T04:00:56;5.93;;;0.80;;
59434;SDS011;45241;49.768;8.636;2023-03-14T04:03:22;5.07;;;0.75;;
59434;SDS011;45241;49.768;8.636;2023-03-14T04:05:57;2.92;;;0.70;;
59434;SDS011;45241;49.768;8.636;2023-03-14T04:08:33;2.20;;;0.70;;
59434;SDS011;45241;49.768;8.636;2023-03-14T04:10:59;1.77;;;0.60;;
59434;SDS011;45241;49.768;8.636;2023-03-14T04:13:25;3.78;;;0.80;;
59434;SDS011;45241;49.768;8.636;2023-03-14T04:15:52;4.80;;;0.80;;
59434;SDS011;45241;49.768;8.636;2023-03-14T04:18:18;3.63;;;0.90;;
59434;SDS011;45241;49.768;8.636;2023-03-14T04:20:43;1.75;;;0.70;;
59434;SDS011;45241;49.768;8.636;2023-03-14T04:23:09;2.72;;;0.75;;
59434;SDS011;45241;49.768;8.636;2023-03-14T04:25:34;2.58;;;0.77;;
59434;SDS011;45241;49.768;8.636;2023-03-14T04:27:59;3.83;;;0.80;;
59434;SDS011;45241;49.768;8.636;2023-03-14T04:30:24;5.28;;;0.90;;
59434;SDS011;45241;49.768;8.636;2023-03-14T04:32:50;3.10;;;0.80;;
59434;SDS011;45241;49.768;8.636;2023-03-14T04:35:15;2.53;;;0.60;;
59434;SDS011;45241;49.768;8.636;2023-03-14T04:37:40;1.80;;;0.77;;
59434;SDS011;45241;49.768;8.636;2023-03-14T04:40:08;5.15;;;0.80;;
59434;SDS011;45241;49.768;8.636;2023-03-14T04:42:34;1.73;;;0.60;;
59434;SDS011;45241;49.768;8.636;2023-03-14T04:44:59;6.47;;;1.00;;
59434;SDS011;45241;49.768;8.636;2023-03-14T04:47:25;4.18;;;0.60;;
59434;SDS011;45241;49.768;8.636;2023-03-14T04:49:50;3.00;;;0.70;;
59434;SDS011;45241;49.768;8.636;2023-03-14T04:52:16;1.38;;;0.57;;
59434;SDS011;45241;49.768;8.636;2023-03-14T04:54:41;4.10;;;0.80;;
59434;SDS011;45241;49.768;8.636;2023-03-14T04:57:06;3.80;;;0.65;;
59434;SDS011;45241;49.768;8.636;2023-03-14T04:59:32;4.07;;;0.68;;
59434;SDS011;45241;49.768;8.636;2023-03-14T05:01:57;2.38;;;0.65;;
59434;SDS011;45241;49.768;8.636;2023-03-14T05:04:22;4.00;;;0.73;;
59434;SDS011;45241;49.768;8.636;2023-03-14T05:06:47;1.88;;;0.60;;
59434;SDS011;45241;49.768;8.636;2023-03-14T05:09:13;2.97;;;0.70;;
59434;SDS011;45241;49.768;8.636;2023-03-14T05:11:40;3.95;;;0.57;;
59434;SDS011;45241;49.768;8.636;2023-03-14T05:14:05;1.65;;;0.60;;
59434;SDS011;45241;49.768;8.636;2023-03-14T05:16:30;3.85;;;0.70;;
59434;SDS011;45241;49.768;8.636;2023-03-14T05:18:56;1.98;;;0.52;;
59434;SDS011;45241;49.768;8.636;2023-03-14T05:21:21;3.83;;;0.90;;
59434;SDS011;45241;49.768;8.636;2023-03-14T05:23:46;2.20;;;0.63;;
59434;SDS011;45241;49.768;8.636;2023-03-14T05:26:12;3.10;;;0.70;;
59434;SDS011;45241;49.768;8.636;2023-03-14T05:28:37;2.90;;;0.50;;
59434;SDS011;45241;49.768;8.636;2023-03-14T05:31:05;4.05;;;0.60;;
59434;SDS011;45241;49.768;8.636;2023-03-14T05:33:31;1.42;;;0.60;;
59434;SDS011;45241;49.768;8.636;2023-03-14T05:35:56;2.65;;;0.63;;
59434;SDS011;45241;49.768;8.636;2023-03-14T05:38:22;0.93;;;0.45;;
59434;SDS011;45241;49.768;8.636;2023-03-14T05:40:47;1.60;;;0.65;;
59434;SDS011;45241;49.768;8.636;2023-03-14T05:43:12;3.95;;;0.70;;
59434;SDS011;45241;49.768;8.636;2023-03-14T05:45:38;2.95;;;0.55;;
59434;SDS011;45241;49.768;8.636;2023-03-14T05:48:04;2.22;;;0.50;;
59434;SDS011;45241;49.768;8.636;2023-03-14T05:50:29;2.17;;;0.68;;
59434;SDS011;45241;49.768;8.636;2023-03-14T05:52:55;4.00;;;0.80;;
59434;SDS011;45241;49.768;8.636;2023-03-14T05:55:20;4.78;;;0.80;;
59434;SDS011;45241;49.768;8.636;2023-03-14T05:57:45;2.67;;;0.50;;
59434;SDS011;45241;49.768;8.636;2023-03-14T06:00:11;3.35;;;0.75;;
59434;SDS011;45241;49.768;8.636;2023-03-14T06:02:36;4.57;;;0.60;;
59434;SDS011;45241;49.768;8.636;2023-03-14T06:05:01;3.45;;;0.50;;
59434;SDS011;45241;49.768;8.636;2023-03-14T06:07:27;2.78;;;0.60;;
59434;SDS011;45241;49.768;8.636;2023-03-14T06:09:52;3.22;;;0.70;;
59434;SDS011;45241;49.768;8.636;2023-03-14T06:12:17;2.28;;;0.57;;
59434;SDS011;45241;49.768;8.636;2023-03-14T06:14:43;2.10;;;0.50;;
59434;SDS011;45241;49.768;8.636;2023-03-14T06:17:08;0.85;;;0.52;;
59434;SDS011;45241;49.768;8.636;2023-03-14T06:19:33;1.35;;;0.65;;
59434;SDS011;45241;49.768;8.636;2023-03-14T06:21:58;5.25;;;0.70;;
59434;SDS011;45241;49.768;8.636;2023-03-14T06:24:24;2.42;;;0.68;;
59434;SDS011;45241;49.768;8.636;2023-03-14T06:26:49;1.42;;;0.50;;
59434;SDS011;45241;49.768;8.636;2023-03-14T06:29:14;3.72;;;0.70;;
59434;SDS011;45241;49.768;8.636;2023-03-14T06:31:40;2.83;;;0.57;;
59434;SDS011;45241;49.768;8.636;2023-03-14T06:34:05;4.70;;;0.88;;
59434;SDS011;45241;49.768;8.636;2023-03-14T06:36:30;2.20;;;0.50;;
59434;SDS011;45241;49.768;8.636;2023-03-14T06:38:56;5.45;;;0.77;;
59434;SDS011;45241;49.768;8.636;2023-03-14T06:41:21;2.90;;;0.55;;
59434;SDS011;45241;49.768;8.636;2023-03-14T06:43:48;3.17;;;0.50;;
59434;SDS011;45241;49.768;8.636;2023-03-14T06:46:14;3.40;;;0.52;;
59434;SDS011;45241;49.768;8.636;2023-03-14T06:48:40;2.00;;;0.68;;
59434;SDS011;45241;49.768;8.636;2023-03-14T06:51:05;3.83;;;0.68;;
59434;SDS011;45241;49.768;8.636;2023-03-14T06:53:31;2.28;;;0.40;;
59434;SDS011;45241;49.768;8.636;2023-03-14T06:55:57;2.75;;;0.80;;
59434;SDS011;45241;49.768;8.636;2023-03-14T06:58:22;3.05;;;0.60;;
59434;SDS011;45241;49.768;8.636;2023-03-14T07:00:47;4.50;;;0.68;;
59434;SDS011;45241;49.768;8.636;2023-03-14T07:03:13;3.20;;;0.60;;
59434;SDS011;45241;49.768;8.636;2023-03-14T07:05:39;3.20;;;0.80;;
59434;SDS011;45241;49.768;8.636;2023-03-14T07:08:05;1.75;;;0.55;;
59434;SDS011;45241;49.768;8.636;2023-03-14T07:10:32;3.13;;;0.60;;
59434;SDS011;45241;49.768;8.636;2023-03-14T07:12:58;3.65;;;1.00;;
59434;SDS011;45241;49.768;8.636;2023-03-14T07:15:23;3.42;;;0.52;;
59434;SDS011;45241;49.768;8.636;2023-03-14T07:17:48;2.70;;;0.60;;
59434;SDS011;45241;49.768;8.636;2023-03-14T07:20:14;3.60;;;0.60;;
59434;SDS011;45241;49.768;8.636;2023-03-14T07:22:39;2.83;;;0.50;;
59434;SDS011;45241;49.768;8.636;2023-03-14T07:25:05;1.88;;;0.40;;
59434;SDS011;45241;49.768;8.636;2023-03-14T07:27:31;2.38;;;0.50;;
59434;SDS011;45241;49.768;8.636;2023-03-14T07:29:56;2.78;;;0.80;;
59434;SDS011;45241;49.768;8.636;2023-03-14T07:32:21;1.35;;;0.50;;
59434;SDS011;45241;49.768;8.636;2023-03-14T07:34:47;1.67;;;0.70;;
59434;SDS011;45241;49.768;8.636;2023-03-14T07:37:12;3.47;;;0.60;;
59434;SDS011;45241;49.768;8.636;2023-03-14T07:39:37;4.20;;;0.90;;
59434;SDS011;45241;49.768;8.636;2023-03-14T07:42:02;3.22;;;0.40;;
59434;SDS011;45241;49.768;8.636;2023-03-14T07:44:28;3.33;;;0.43;;
59434;SDS011;45241;49.768;8.636;2023-03-14T07:46:53;1.63;;;0.50;;
59434;SDS011;45241;49.768;8.636;2023-03-14T07:49:19;3.42;;;0.50;;
59434;SDS011;45241;49.768;8.636;2023-03-14T07:51:46;2.00;;;0.38;;
59434;SDS011;45241;49.768;8.636;2023-03-14T07:54:12;2.05;;;0.20;;
59434;SDS011;45241;49.768;8.636;2023-03-14T07:56:38;1.25;;;0.30;;
59434;SDS011;45241;49.768;8.636;2023-03-14T07:59:03;1.77;;;0.30;;
59434;SDS011;45241;49.768;8.636;2023-03-14T08:01:28;2.63;;;0.32;;
59434;SDS011;45241;49.768;8.636;2023-03-14T08:03:54;2.58;;;0.60;;
59434;SDS011;45241;49.768;8.636;2023-03-14T08:06:19;2.78;;;0.50;;
59434;SDS011;45241;49.768;8.636;2023-03-14T08:08:44;2.10;;;0.40;;
59434;SDS011;45241;49.768;8.636;2023-03-14T08:11:10;1.60;;;0.22;;
59434;SDS011;45241;49.768;8.636;2023-03-14T08:13:36;1.30;;;0.30;;
59434;SDS011;45241;49.768;8.636;2023-03-14T08:16:01;2.00;;;0.30;;
59434;SDS011;45241;49.768;8.636;2023-03-14T08:18:27;1.85;;;0.30;;
59434;SDS011;45241;49.768;8.636;2023-03-14T08:20:52;0.50;;;0.30;;
59434;SDS011;45241;49.768;8.636;2023-03-14T08:23:18;3.30;;;0.38;;
59434;SDS011;45241;49.768;8.636;2023-03-14T08:25:43;1.38;;;0.30;;
59434;SDS011;45241;49.768;8.636;2023-03-14T08:28:08;1.77;;;0.40;;
59434;SDS011;45241;49.768;8.636;2023-03-14T08:30:34;1.58;;;0.40;;
59434;SDS011;45241;49.768;8.636;2023-03-14T08:32:59;1.85;;;0.43;;
59434;SDS011;45241;49.768;8.636;2023-03-14T08:35:25;1.20;;;0.65;;
59434;SDS011;45241;49.768;8.636;2023-03-14T08:37:51;2.10;;;0.20;;
59434;SDS011;45241;49.768;8.636;2023-03-14T08:40:17;1.40;;;0.20;;
59434;SDS011;45241;49.768;8.636;2023-03-14T08:42:43;1.38;;;0.25;;
59434;SDS011;45241;49.768;8.636;2023-03-14T08:45:11;1.10;;;0.17;;
59434;SDS011;45241;49.768;8.636;2023-03-14T08:47:38;0.88;;;0.20;;
59434;SDS011;45241;49.768;8.636;2023-03-14T08:50:04;1.10;;;0.40;;
59434;SDS011;45241;49.768;8.636;2023-03-14T08:52:30;1.75;;;0.17;;
59434;SDS011;45241;49.768;8.636;2023-03-14T08:54:56;1.65;;;0.40;;
59434;SDS011;45241;49.768;8.636;2023-03-14T08:57:22;1.55;;;0.30;;
59434;SDS011;45241;49.768;8.636;2023-03-14T09:02:17;1.52;;;0.30;;
59434;SDS011;45241;49.768;8.636;2023-03-14T09:04:42;0.50;;;0.20;;
59434;SDS011;45241;49.768;8.636;2023-03-14T09:07:07;1.00;;;0.30;;
59434;SDS011;45241;49.768;8.636;2023-03-14T09:09:33;1.45;;;0.30;;
59434;SDS011;45241;49.768;8.636;2023-03-14T09:11:58;0.82;;;0.32;;
59434;SDS011;45241;49.768;8.636;2023-03-14T09:14:23;1.35;;;0.38;;
59434;SDS011;45241;49.768;8.636;2023-03-14T09:16:49;2.47;;;0.22;;
59434;SDS011;45241;49.768;8.636;2023-03-14T09:19:15;0.25;;;0.13;;
59434;SDS011;45241;49.768;8.636;2023-03-14T09:21:40;0.40;;;0.10;;
59434;SDS011;45241;49.768;8.636;2023-03-14T09:24:06;1.05;;;0.20;;
59434;SDS011;45241;49.768;8.636;2023-03-14T09:26:32;2.28;;;0.20;;
59434;SDS011;45241;49.768;8.636;2023-03-14T09:28:57;0.22;;;0.10;;
59434;SDS011;45241;49.768;8.636;2023-03-14T09:31:22;0.68;;;0.10;;
59434;SDS011;45241;49.768;8.636;2023-03-14T09:33:47;0.55;;;0.20;;
59434;SDS011;45241;49.768;8.636;2023-03-14T09:36:13;0.73;;;0.30;;
59434;SDS011;45241;49.768;8.636;2023-03-14T09:38:38;0.82;;;0.20;;
59434;SDS011;45241;49.768;8.636;2023-03-14T09:41:10;1.00;;;0.10;;
59434;SDS011;45241;49.768;8.636;2023-03-14T09:43:49;1.27;;;0.22;;
59434;SDS011;45241;49.768;8.636;2023-03-14T09:46:19;1.50;;;0.22;;
59434;SDS011;45241;49.768;8.636;2023-03-14T09:48:45;0.73;;;0.15;;
59434;SDS011;45241;49.768;8.636;2023-03-14T09:51:12;0.52;;;0.10;;
59434;SDS011;45241;49.768;8.636;2023-03-14T09:53:41;0.40;;;0.10;;
59434;SDS011;45241;49.768;8.636;2023-03-14T09:56:18;0.65;;;0.30;;
59434;SDS011;45241;49.768;8.636;2023-03-14T09:58:56;1.08;;;0.10;;
59434;SDS011;45241;49.768;8.636;2023-03-14T10:01:27;2.05;;;0.20;;
59434;SDS011;45241;49.768;8.636;2023-03-14T10:03:55;1.33;;;0.20;;
59434;SDS011;45241;49.768;8.636;2023-03-14T10:06:24;1.35;;;0.30;;
59434;SDS011;45241;49.768;8.636;2023-03-14T10:08:51;0.35;;;0.20;;
59434;SDS011;45241;49.768;8.636;2023-03-14T10:11:18;1.38;;;0.20;;
59434;SDS011;45241;49.768;8.636;2023-03-14T10:13:47;0.85;;;0.13;;
59434;SDS011;45241;49.768;8.636;2023-03-14T10:16:34;0.55;;;0.15;;
59434;SDS011;45241;49.768;8.636;2023-03-14T10:19:11;1.45;;;0.10;;
59434;SDS011;45241;49.768;8.636;2023-03-14T10:21:39;1.60;;;0.22;;
59434;SDS011;45241;49.768;8.636;2023-03-14T10:24:25;0.20;;;0.10;;
59434;SDS011;45241;49.768;8.636;2023-03-14T10:27:01;1.02;;;0.10;;
59434;SDS011;45241;49.768;8.636;2023-03-14T10:29:27;1.10;;;0.10;;
59434;SDS011;45241;49.768;8.636;2023-03-14T10:34:24;0.80;;;0.25;;
59434;SDS011;45241;49.768;8.636;2023-03-14T10:36:55;1.58;;;0.20;;
59434;SDS011;45241;49.768;8.636;2023-03-14T10:39:30;0.20;;;0.13;;
59434;SDS011;45241;49.768;8.636;2023-03-14T10:42:15;0.40;;;0.20;;
59434;SDS011;45241;49.768;8.636;2023-03-14T10:44:57;0.45;;;0.20;;
59434;SDS011;45241;49.768;8.636;2023-03-14T10:47:25;0.60;;;0.10;;
59434;SDS011;45241;49.768;8.636;2023-03-14T10:49:53;0.82;;;0.20;;
59434;SDS011;45241;49.768;8.636;2023-03-14T10:54:48;1.30;;;0.30;;
59434;SDS011;45241;49.768;8.636;2023-03-14T10:57:14;2.15;;;0.20;;
59434;SDS011;45241;49.768;8.636;2023-03-14T10:59:41;1.60;;;0.25;;
59434;SDS011;45241;49.768;8.636;2023-03-14T11:02:24;0.60;;;0.20;;
59434;SDS011;45241;49.768;8.636;2023-03-14T11:05:21;1.17;;;0.22;;
59434;SDS011;45241;49.768;8.636;2023-03-14T11:08:01;0.40;;;0.20;;
59434;SDS011;45241;49.768;8.636;2023-03-14T11:10:35;2.55;;;0.40;;
59434;SDS011;45241;49.768;8.636;2023-03-14T11:16:20;3.35;;;0.70;;
59434;SDS011;45241;49.768;8.636;2023-03-14T11:26:40;2.03;;;0.47;;
59434;SDS011;45241;49.768;8.636;2023-03-14T11:29:18;0.80;;;0.40;;
59434;SDS011;45241;49.768;8.636;2023-03-14T11:31:47;0.43;;;0.20;;
59434;SDS011;45241;49.768;8.636;2023-03-14T11:36:45;0.60;;;0.40;;
59434;SDS011;45241;49.768;8.636;2023-03-14T11:39:13;2.38;;;0.40;;
59434;SDS011;45241;49.768;8.636;2023-03-14T11:41:41;1.25;;;0.28;;
59434;SDS011;45241;49.768;8.636;2023-03-14T11:44:16;1.88;;;0.40;;
59434;SDS011;45241;49.768;8.636;2023-03-14T11:46:57;0.88;;;0.30;;
59434;SDS011;45241;49.768;8.636;2023-03-14T11:49:36;1.08;;;0.60;;
59434;SDS011;45241;49.768;8.636;2023-03-14T11:52:05;1.10;;;0.50;;
59434;SDS011;45241;49.768;8.636;2023-03-14T11:57:35;1.80;;;0.45;;
59434;SDS011;45241;49.768;8.636;2023-03-14T12:08:29;0.80;;;0.50;;
59434;SDS011;45241;49.768;8.636;2023-03-14T12:13:46;0.40;;;0.30;;
59434;SDS011;45241;49.768;8.636;2023-03-14T12:18:49;0.47;;;0.20;;
59434;SDS011;45241;49.768;8.636;2023-03-14T12:21:16;0.10;;;0.10;;
59434;SDS011;45241;49.768;8.636;2023-03-14T12:23:49;0.08;;;0.08;;
59434;SDS011;45241;49.768;8.636;2023-03-14T12:42:13;0.10;;;0.00;;
59434;SDS011;45241;49.768;8.636;2023-03-14T12:44:47;0.75;;;0.00;;
59434;SDS011;45241;49.768;8.636;2023-03-14T12:49:46;0.03;;;0.00;;
59434;SDS011;45241;49.768;8.636;2023-03-14T12:52:19;0.10;;;0.10;;
59434;SDS011;45241;49.768;8.636;2023-03-14T13:00:21;0.13;;;0.10;;
59434;SDS011;45241;49.768;8.636;2023-03-14T13:02:49;0.88;;;0.10;;
59434;SDS011;45241;49.768;8.636;2023-03-14T13:05:18;0.30;;;0.22;;
59434;SDS011;45241;49.768;8.636;2023-03-14T13:10:22;0.00;;;0.00;;
59434;SDS011;45241;49.768;8.636;2023-03-14T13:15:18;0.17;;;0.10;;
59434;SDS011;45241;49.768;8.636;2023-03-14T13:17:48;0.55;;;0.10;;
59434;SDS011;45241;49.768;8.636;2023-03-14T13:20:17;0.10;;;0.10;;
59434;SDS011;45241;49.768;8.636;2023-03-14T13:22:48;1.40;;;0.20;;
59434;SDS011;45241;49.768;8.636;2023-03-14T13:25:14;0.28;;;0.25;;
59434;SDS011;45241;49.768;8.636;2023-03-14T13:27:41;0.50;;;0.20;;
59434;SDS011;45241;49.768;8.636;2023-03-14T13:32:42;1.58;;;0.30;;
59434;SDS011;45241;49.768;8.636;2023-03-14T13:35:20;0.20;;;0.15;;
59434;SDS011;45241;49.768;8.636;2023-03-14T13:37:58;0.43;;;0.20;;
59434;SDS011;45241;49.768;8.636;2023-03-14T13:40:26;0.50;;;0.30;;
59434;SDS011;45241;49.768;8.636;2023-03-14T13:43:04;0.40;;;0.20;;
59434;SDS011;45241;49.768;8.636;2023-03-14T13:45:48;0.85;;;0.40;;
59434;SDS011;45241;49.768;8.636;2023-03-14T13:48:15;0.28;;;0.20;;
59434;SDS011;45241;49.768;8.636;2023-03-14T13:50:51;0.17;;;0.17;;
59434;SDS011;45241;49.768;8.636;2023-03-14T13:53:19;0.70;;;0.30;;
59434;SDS011;45241;49.768;8.636;2023-03-14T13:55:44;0.75;;;0.30;;
59434;SDS011;45241;49.768;8.636;2023-03-14T13:58:20;0.40;;;0.20;;
59434;SDS011;45241;49.768;8.636;2023-03-14T14:03:26;0.75;;;0.20;;
59434;SDS011;45241;49.768;8.636;2023-03-14T14:05:53;2.35;;;0.40;;
59434;SDS011;45241;49.768;8.636;2023-03-14T14:08:20;0.55;;;0.40;;
59434;SDS011;45241;49.768;8.636;2023-03-14T14:10:46;1.63;;;0.43;;
59434;SDS011;45241;49.768;8.636;2023-03-14T14:13:14;0.43;;;0.30;;
59434;SDS011;45241;49.768;8.636;2023-03-14T14:15:45;0.32;;;0.30;;
59434;SDS011;45241;49.768;8.636;2023-03-14T14:18:16;0.63;;;0.30;;
59434;SDS011;45241;49.768;8.636;2023-03-14T14:23:13;0.80;;;0.40;;
59434;SDS011;45241;49.768;8.636;2023-03-14T14:25:42;1.75;;;0.30;;
59434;SDS011;45241;49.768;8.636;2023-03-14T14:30:42;0.35;;;0.25;;
59434;SDS011;45241;49.768;8.636;2023-03-14T14:33:16;0.50;;;0.30;;
59434;SDS011;45241;49.768;8.636;2023-03-14T14:35:53;0.52;;;0.30;;
59434;SDS011;45241;49.768;8.636;2023-03-14T14:38:21;0.90;;;0.30;;
59434;SDS011;45241;49.768;8.636;2023-03-14T14:40:51;0.40;;;0.40;;
59434;SDS011;45241;49.768;8.636;2023-03-14T14:43:21;0.50;;;0.30;;
59434;SDS011;45241;49.768;8.636;2023-03-14T14:45:49;0.50;;;0.30;;
59434;SDS011;45241;49.768;8.636;2023-03-14T14:48:18;2.50;;;0.60;;
59434;SDS011;45241;49.768;8.636;2023-03-14T14:53:23;1.30;;;0.55;;
59434;SDS011;45241;49.768;8.636;2023-03-14T14:55:52;1.10;;;0.50;;
59434;SDS011;45241;49.768;8.636;2023-03-14T15:00:50;1.20;;;0.50;;
59434;SDS011;45241;49.768;8.636;2023-03-14T15:03:18;1.45;;;0.40;;
59434;SDS011;45241;49.768;8.636;2023-03-14T15:05:43;1.73;;;0.38;;
59434;SDS011;45241;49.768;8.636;2023-03-14T15:08:12;2.00;;;0.40;;
59434;SDS011;45241;49.768;8.636;2023-03-14T15:10:37;1.90;;;0.50;;
59434;SDS011;45241;49.768;8.636;2023-03-14T15:13:03;1.33;;;0.40;;
59434;SDS011;45241;49.768;8.636;2023-03-14T15:15:28;0.60;;;0.40;;
59434;SDS011;45241;49.768;8.636;2023-03-14T15:17:54;0.60;;;0.30;;
59434;SDS011;45241;49.768;8.636;2023-03-14T15:20:19;0.75;;;0.38;;
59434;SDS011;45241;49.768;8.636;2023-03-14T15:22:46;2.65;;;0.60;;
59434;SDS011;45241;49.768;8.636;2023-03-14T15:25:11;2.67;;;0.60;;
59434;SDS011;45241;49.768;8.636;2023-03-14T15:27:37;1.08;;;0.38;;
59434;SDS011;45241;49.768;8.636;2023-03-14T15:30:09;1.25;;;0.40;;
59434;SDS011;45241;49.768;8.636;2023-03-14T15:32:36;0.60;;;0.30;;
59434;SDS011;45241;49.768;8.636;2023-03-14T15:35:01;1.30;;;0.40;;
59434;SDS011;45241;49.768;8.636;2023-03-14T15:37:27;0.77;;;0.30;;
59434;SDS011;45241;49.768;8.636;2023-03-14T15:39:52;2.88;;;0.30;;
59434;SDS011;45241;49.768;8.636;2023-03-14T15:42:17;1.00;;;0.40;;
59434;SDS011;45241;49.768;8.636;2023-03-14T15:44:43;2.30;;;0.57;;
59434;SDS011;45241;49.768;8.636;2023-03-14T15:47:09;1.50;;;0.40;;
59434;SDS011;45241;49.768;8.636;2023-03-14T15:49:35;5.72;;;0.60;;
59434;SDS011;45241;49.768;8.636;2023-03-14T15:52:01;1.08;;;0.40;;
59434;SDS011;45241;49.768;8.636;2023-03-14T15:54:27;0.65;;;0.30;;
59434;SDS011;45241;49.768;8.636;2023-03-14T15:56:53;0.50;;;0.32;;
59434;SDS011;45241;49.768;8.636;2023-03-14T15:59:23;0.52;;;0.40;;
59434;SDS011;45241;49.768;8.636;2023-03-14T16:01:48;1.70;;;0.40;;
59434;SDS011;45241;49.768;8.636;2023-03-14T16:04:14;0.90;;;0.22;;
59434;SDS011;45241;49.768;8.636;2023-03-14T16:06:40;3.42;;;0.38;;
59434;SDS011;45241;49.768;8.636;2023-03-14T16:09:06;1.85;;;0.60;;
59434;SDS011;45241;49.768;8.636;2023-03-14T16:11:31;1.50;;;0.40;;
59434;SDS011;45241;49.768;8.636;2023-03-14T16:13:56;1.00;;;0.30;;
59434;SDS011;45241;49.768;8.636;2023-03-14T16:16:22;0.43;;;0.30;;
59434;SDS011;45241;49.768;8.636;2023-03-14T16:18:47;1.13;;;0.45;;